Terminal Aerodrome Forecast
Issued by NWS

Current Version | Previous Version | Graphics & Text | Print | Product List | Glossary On
Versions: 1 2 3 4 5 6 7 8 9 10 11 12 13 14 15 16 17
000
FTUS41 KILN 141600 AAB
TAFLCK
TAF AMD
KLCK 141643Z 1417/1512 22018G27KT P6SM -SHRA OVC025
     FM150000 29014G20KT P6SM -RA SCT010 OVC022
     FM150600 33016G28KT 5SM -RA BR OVC008
     FM151000 34018G25KT 3SM -SN OVC006=

USA.gov is the U.S. government's official web portal to all federal, state and local government web resources and services.